»·PEaware :: N5328W KSBA-KBUR

N5328W :: KSBA-KBUR

FLIGHT INFORMATION

Flight Status: Arrived
Operator: Privately registered:
United States
More flights under this callsign
Pilot: Nick S. (31988)
Aircraft: Unknown
(A36)
More flights by this aircraft type
Origin: KSBA Santa Barbara Mun
United States
Destination: KBUR Bob Hope-Burbank
United States
More flights between these airports :: More routes between these airports
Route: +DIRECT
File this flight plan on PilotEdge
Remarks:
Altitude:
(Current/Filed)
7,500ft
Speed:
(Current/Filed)
160kts
Departed: 18-Oct-20 02:23 PM
Arrived: 18-Oct-20 02:59 PM
Distance/Time
Traveled:
75nm/0:35
Distance/Time
To Go:
Arrived

Flight Plot

Page will automatically refresh every two minutes.


Map Options




Map Legend


Flown Route
Filed Route
Departure Airport
Arrival Airport
Navaid (VOR, NDB)
Fix

Horizontal Profiles

Position Reports

Time Latitude Longitude Heading Altitude Ground
Speed
18-Oct-20 13:51 0.000408 0.013975 359 3ft 0kts
18-Oct-20 13:52 0.000408 0.013975 359 3ft 0kts
18-Oct-20 13:53 34.423086 -119.836428 351 11ft 0kts
18-Oct-20 13:54 34.423086 -119.836428 351 12ft 0kts
18-Oct-20 13:55 34.423086 -119.836428 351 12ft 0kts
18-Oct-20 13:56 34.423086 -119.836428 351 12ft 0kts
18-Oct-20 13:57 34.423086 -119.836428 351 12ft 0kts
18-Oct-20 13:58 34.423086 -119.836428 351 12ft 0kts
18-Oct-20 13:59 34.423086 -119.836428 351 12ft 0kts
18-Oct-20 14:00 34.423086 -119.836428 351 12ft 0kts
18-Oct-20 14:01 34.423086 -119.836428 351 12ft 0kts
18-Oct-20 14:02 34.423086 -119.836428 351 12ft 0kts
18-Oct-20 14:03 34.423086 -119.836428 351 12ft 0kts
18-Oct-20 14:04 34.423086 -119.836428 351 12ft 0kts
18-Oct-20 14:05 34.423086 -119.836428 351 12ft 0kts
18-Oct-20 14:06 34.423086 -119.836428 351 12ft 0kts
18-Oct-20 14:07 34.423086 -119.836428 351 12ft 0kts
18-Oct-20 14:08 34.423086 -119.836428 351 12ft 0kts
18-Oct-20 14:09 34.423086 -119.836428 351 12ft 0kts
18-Oct-20 14:10 34.423086 -119.836428 351 12ft 0kts
18-Oct-20 14:11 34.423088 -119.836428 350 12ft 0kts
18-Oct-20 14:12 34.423449 -119.837318 330 13ft 10kts
18-Oct-20 14:13 34.426777 -119.835566 90 12ft 12kts
18-Oct-20 14:14 34.427093 -119.834487 1 12ft 0kts
18-Oct-20 14:15 34.427093 -119.834488 1 12ft 0kts
18-Oct-20 14:16 34.427093 -119.834487 1 12ft 0kts
18-Oct-20 14:17 34.427093 -119.834487 1 12ft 0kts
18-Oct-20 14:18 34.427093 -119.834488 1 12ft 0kts
18-Oct-20 14:19 34.427093 -119.834488 1 12ft 0kts
18-Oct-20 14:20 34.427093 -119.834488 1 12ft 0kts
18-Oct-20 14:21 34.427093 -119.834488 1 12ft 0kts
18-Oct-20 14:22 34.427261 -119.849403 266 194ft 107kts
18-Oct-20 14:23 34.434786 -119.892904 283 899ft 152kts
18-Oct-20 14:24 34.444693 -119.942572 283 1423ft 153kts
18-Oct-20 14:25 34.424764 -119.980195 178 1598ft 156kts
18-Oct-20 14:26 34.399099 -119.945103 114 2348ft 137kts
18-Oct-20 14:27 34.385001 -119.905318 113 3362ft 124kts
18-Oct-20 14:28 34.383903 -119.867169 54 4366ft 114kts
18-Oct-20 14:29 34.402730 -119.834772 54 5369ft 119kts
18-Oct-20 14:30 34.417448 -119.800444 88 6361ft 115kts
18-Oct-20 14:31 34.413974 -119.757561 100 6969ft 138kts
18-Oct-20 14:32 34.406807 -119.709979 100 7437ft 152kts
18-Oct-20 14:33 34.398922 -119.656405 100 7459ft 168kts
18-Oct-20 14:34 34.390603 -119.600009 100 7461ft 171kts
18-Oct-20 14:35 34.382179 -119.543095 100 7462ft 172kts
18-Oct-20 14:36 34.373707 -119.486129 100 7470ft 171kts
18-Oct-20 14:37 34.365224 -119.429221 100 7473ft 172kts
18-Oct-20 14:38 34.356519 -119.370955 100 6991ft 177kts
18-Oct-20 14:39 34.347714 -119.312333 100 6483ft 175kts
18-Oct-20 14:40 34.339000 -119.254395 100 5981ft 173kts
18-Oct-20 14:41 34.330389 -119.197483 100 5488ft 171kts
18-Oct-20 14:42 34.321804 -119.140786 100 4985ft 170kts
18-Oct-20 14:43 34.313232 -119.084366 100 4489ft 169kts
18-Oct-20 14:44 34.304684 -119.028388 100 3987ft 169kts
18-Oct-20 14:45 34.296156 -118.972495 100 3522ft 168kts
18-Oct-20 14:46 34.287538 -118.916417 100 3471ft 170kts
18-Oct-20 14:47 34.278850 -118.859986 100 3472ft 170kts
18-Oct-20 14:48 34.270112 -118.803483 100 3471ft 171kts
18-Oct-20 14:49 34.261370 -118.747039 100 3471ft 171kts
18-Oct-20 14:50 34.252576 -118.690439 100 3473ft 171kts
18-Oct-20 14:51 34.243764 -118.633910 100 3476ft 170kts
18-Oct-20 14:52 34.234962 -118.577640 100 3424ft 173kts
18-Oct-20 14:53 34.223463 -118.523008 117 3009ft 161kts
18-Oct-20 14:54 34.203425 -118.477057 118 2991ft 151kts
18-Oct-20 14:55 34.197116 -118.431603 78 2247ft 123kts
18-Oct-20 14:56 34.198165 -118.395583 92 1392ft 90kts
18-Oct-20 14:57 34.197866 -118.366266 91 725ft 67kts
18-Oct-20 14:58 34.198699 -118.360227 2 716ft 3kts
18-Oct-20 14:59 34.200683 -118.358945 63 721ft 0kts
18-Oct-20 15:00 34.200683 -118.358945 63 721ft 0kts

Navigation Log

Ident Type
Flight plan parsing failed, navigation log unavailable